createdAt,value
2023-01-01T00:00:17.324Z,0.340
2023-01-01T00:01:15.937Z,0.449
2023-01-01T00:02:14.929Z,0.340
2023-01-01T00:03:15.326Z,0.219
2023-01-01T00:04:15.581Z,0.109
2023-01-01T00:05:15.525Z,0
2023-01-01T00:06:15.079Z,0.109
2023-01-01T00:07:15.564Z,0.109
2023-01-01T00:08:15.436Z,0.219
2023-01-01T00:09:14.900Z,0.219
2023-01-01T00:10:15.684Z,0.109
2023-01-01T00:11:14.918Z,0.109
2023-01-01T00:12:14.714Z,0.219
2023-01-01T00:13:15.208Z,0.219
2023-01-01T00:14:20.372Z,0.109
2023-01-01T00:15:14.806Z,0.109
2023-01-01T00:16:15.392Z,0.109
2023-01-01T00:17:15.618Z,0.109
2023-01-01T00:18:15.669Z,0.109
2023-01-01T00:19:15.537Z,0.219
2023-01-01T00:20:20.613Z,0.340
2023-01-01T00:21:15.359Z,0.109
2023-01-01T00:23:15.586Z,0.340
2023-01-01T00:24:15.317Z,0.340
2023-01-01T00:25:15.671Z,0.109
2023-01-01T00:26:15.183Z,0
2023-01-01T00:27:14.814Z,0.219
2023-01-01T00:28:14.820Z,0.109
2023-01-01T00:29:15.134Z,0.109
2023-01-01T00:30:16.051Z,0.109
2023-01-01T00:31:15.839Z,0
2023-01-01T00:32:20.766Z,0.109
2023-01-01T00:33:16.088Z,0
2023-01-01T00:34:15.574Z,0.219
2023-01-01T00:35:15.666Z,0.109
2023-01-01T00:36:14.259Z,0.449
2023-01-01T00:37:16.623Z,0.680
2023-01-01T00:38:16.104Z,0.449
2023-01-01T00:39:16.412Z,0.109
2023-01-01T00:40:16.619Z,0
2023-01-01T00:41:15.697Z,0.109
2023-01-01T00:42:16.307Z,0.109
2023-01-01T00:43:16.253Z,0.119
2023-01-01T00:44:15.611Z,0
2023-01-01T00:45:21.542Z,0.219
2023-01-01T00:46:14.969Z,0
2023-01-01T00:47:16.520Z,0.119
2023-01-01T00:48:15.415Z,0
2023-01-01T00:49:15.281Z,0
2023-01-01T00:50:16.385Z,0
2023-01-01T00:51:15.379Z,0.100
2023-01-01T00:52:16.389Z,0.239
2023-01-01T00:53:16.594Z,0.340
2023-01-01T00:54:15.791Z,0.109
2023-01-01T00:55:15.716Z,0.219
2023-01-01T00:56:15.921Z,0.109
2023-01-01T00:57:15.865Z,0.109
2023-01-01T00:58:16.615Z,0.109
2023-01-01T00:59:16.002Z,0.449
2023-01-01T01:00:16.875Z,0.340
2023-01-01T01:01:18.499Z,0.219
2023-01-01T01:02:15.793Z,0.109
2023-01-01T01:03:16.149Z,0
2023-01-01T01:04:15.201Z,0.449
2023-01-01T01:05:16.198Z,0.109
2023-01-01T01:06:15.613Z,0.219
2023-01-01T01:07:15.717Z,0.109
2023-01-01T01:08:15.799Z,0
2023-01-01T01:09:16.272Z,0.219
2023-01-01T01:10:16.771Z,0.109
2023-01-01T01:11:15.671Z,0.109
2023-01-01T01:12:18.083Z,0.340
2023-01-01T01:13:15.643Z,0.219
2023-01-01T01:14:15.741Z,0.680
2023-01-01T01:15:16.157Z,0.560
2023-01-01T01:16:15.850Z,0
2023-01-01T01:17:16.041Z,0.109
2023-01-01T01:18:15.354Z,0.340
2023-01-01T01:19:15.846Z,0.109
2023-01-01T01:20:15.287Z,0.109
2023-01-01T01:21:15.909Z,0
2023-01-01T01:22:15.413Z,0.560
2023-01-01T01:23:16.198Z,0.109
2023-01-01T01:24:16.229Z,0.219
2023-01-01T01:25:16.103Z,0.449
2023-01-01T01:26:15.127Z,0.109
2023-01-01T01:27:16.184Z,0.219
2023-01-01T01:28:15.373Z,0.109
2023-01-01T01:29:15.805Z,0.219
2023-01-01T01:30:15.363Z,0.340
2023-01-01T01:31:15.074Z,0.109
2023-01-01T01:32:15.376Z,0.340
2023-01-01T01:33:15.929Z,0.109
2023-01-01T01:34:16.389Z,0.109
2023-01-01T01:35:16.018Z,0.219
2023-01-01T01:36:15.611Z,0.340
2023-01-01T01:37:14.861Z,0.109
2023-01-01T01:38:14.997Z,0.219
2023-01-01T01:39:16.006Z,0
2023-01-01T01:40:15.478Z,0.340
2023-01-01T01:41:26.644Z,0
2023-01-01T01:42:15.037Z,0
2023-01-01T01:43:15.282Z,0.340
2023-01-01T01:44:15.765Z,0.219
2023-01-01T01:45:15.455Z,0.109
2023-01-01T01:46:15.030Z,0
2023-01-01T01:47:15.719Z,0.219
2023-01-01T01:48:15.820Z,0.219
2023-01-01T01:49:15.242Z,0.109
2023-01-01T01:50:15.479Z,0.109
2023-01-01T01:51:15.024Z,0.219
2023-01-01T01:52:15.913Z,0
2023-01-01T01:53:15.813Z,0.219
2023-01-01T01:54:15.069Z,0.219
2023-01-01T01:55:15.711Z,0.340
2023-01-01T01:56:15.509Z,0.340
2023-01-01T01:57:16.124Z,0
2023-01-01T01:58:14.885Z,0
2023-01-01T01:59:15.229Z,0
2023-01-01T02:00:16.105Z,0.219
2023-01-01T02:01:14.924Z,0
2023-01-01T02:02:15.291Z,0
2023-01-01T02:03:15.406Z,0
2023-01-01T02:04:15.496Z,0.109
2023-01-01T02:05:16.031Z,0
2023-01-01T02:06:15.458Z,0
2023-01-01T02:07:14.774Z,0.219
2023-01-01T02:08:15.630Z,0
2023-01-01T02:09:15.909Z,0.119
2023-01-01T02:10:14.416Z,0.239
2023-01-01T02:11:21.658Z,0.219
2023-01-01T02:12:15.157Z,0.219
2023-01-01T02:13:14.975Z,0.109
2023-01-01T02:14:15.348Z,0.100
2023-01-01T02:15:16.218Z,0.119
2023-01-01T02:16:15.500Z,0.109
2023-01-01T02:17:14.773Z,0.219
2023-01-01T02:18:14.626Z,0.109
2023-01-01T02:19:15.755Z,0
2023-01-01T02:20:14.835Z,0
2023-01-01T02:21:15.496Z,0.109
2023-01-01T02:22:15.536Z,0.109
2023-01-01T02:23:15.747Z,0.109
2023-01-01T02:24:14.536Z,0.109
2023-01-01T02:25:15.583Z,0
2023-01-01T02:26:15.862Z,0
2023-01-01T02:27:14.980Z,0
2023-01-01T02:28:15.330Z,0
2023-01-01T02:29:15.592Z,0
2023-01-01T02:30:16.165Z,0
2023-01-01T02:31:21.207Z,0
2023-01-01T02:32:15.354Z,0
2023-01-01T02:33:15.874Z,0
2023-01-01T02:34:14.954Z,0
2023-01-01T02:35:16.005Z,0
2023-01-01T02:36:14.773Z,0
2023-01-01T02:37:14.924Z,0.109
2023-01-01T02:38:15.498Z,0.109
2023-01-01T02:39:15.644Z,0.109
2023-01-01T02:40:15.803Z,0.109
2023-01-01T02:41:14.462Z,0
2023-01-01T02:42:15.829Z,0
2023-01-01T02:43:17.850Z,0.219
2023-01-01T02:44:14.913Z,0
2023-01-01T02:45:20.567Z,0
2023-01-01T02:47:14.826Z,0.109
2023-01-01T02:48:14.984Z,0
2023-01-01T02:49:15.379Z,0.109
2023-01-01T02:50:15.501Z,0
2023-01-01T02:51:15.662Z,0
2023-01-01T02:52:14.870Z,0.109
2023-01-01T02:53:15.109Z,0
2023-01-01T02:54:15.082Z,0
2023-01-01T02:55:15.300Z,0.340
2023-01-01T02:56:15.251Z,0.219
2023-01-01T02:57:15.152Z,0.109
2023-01-01T02:58:14.809Z,0.219
2023-01-01T02:59:14.806Z,0
2023-01-01T03:00:16.971Z,0.109
2023-01-01T03:01:15.319Z,0
2023-01-01T03:02:15.486Z,0.340
2023-01-01T03:03:15.170Z,0.109
2023-01-01T03:04:15.503Z,0.340
2023-01-01T03:05:15.857Z,0.109
2023-01-01T03:06:15.158Z,0.219
2023-01-01T03:07:15.278Z,0
2023-01-01T03:08:15.562Z,0.109
2023-01-01T03:09:15.151Z,0
2023-01-01T03:10:15.465Z,0.109
2023-01-01T03:11:15.821Z,0
2023-01-01T03:12:14.975Z,0
2023-01-01T03:13:15.502Z,0
2023-01-01T03:14:15.457Z,0.109
2023-01-01T03:15:15.533Z,0.219
2023-01-01T03:16:15.206Z,0.219
2023-01-01T03:17:14.964Z,0
2023-01-01T03:18:14.908Z,0
2023-01-01T03:19:14.806Z,0
2023-01-01T03:20:15.489Z,0.109
2023-01-01T03:22:15.634Z,0.219
2023-01-01T03:23:15.841Z,0.119
2023-01-01T03:24:14.597Z,0.219
2023-01-01T03:25:16.143Z,0
2023-01-01T03:26:14.793Z,0
2023-01-01T03:27:14.840Z,0
2023-01-01T03:28:14.803Z,0
2023-01-01T03:29:14.765Z,0
2023-01-01T03:30:16.245Z,0
2023-01-01T03:31:15.130Z,0
2023-01-01T03:32:14.977Z,0.109
2023-01-01T03:33:15.324Z,0
2023-01-01T03:34:14.845Z,0
2023-01-01T03:35:14.749Z,0.109
2023-01-01T03:36:15.644Z,0.109
2023-01-01T03:37:15.983Z,0.219
2023-01-01T03:38:14.700Z,0.109
2023-01-01T03:39:15.841Z,0
2023-01-01T03:40:14.966Z,0.560
2023-01-01T03:41:14.912Z,0.109
2023-01-01T03:42:15.284Z,0
2023-01-01T03:43:15.384Z,0.109
2023-01-01T03:44:15.317Z,0
2023-01-01T03:45:14.956Z,0.109
2023-01-01T03:46:14.848Z,0
2023-01-01T03:47:15.092Z,0.109
2023-01-01T03:48:15.014Z,0.219
2023-01-01T03:49:15.165Z,0.109
2023-01-01T03:50:15.154Z,0.219
2023-01-01T03:51:14.917Z,0.340
2023-01-01T03:52:14.838Z,0
2023-01-01T03:53:15.162Z,0
2023-01-01T03:54:15.172Z,0
2023-01-01T03:55:14.871Z,0.109
2023-01-01T03:56:15.509Z,0.219
2023-01-01T03:57:15.805Z,0.340
2023-01-01T03:58:15.633Z,0
2023-01-01T03:59:15.716Z,0.109
2023-01-01T04:00:16.751Z,0.109
2023-01-01T04:01:14.963Z,0
2023-01-01T04:02:15.194Z,0.109
2023-01-01T04:03:15.372Z,0
2023-01-01T04:04:15.991Z,0.109
2023-01-01T04:05:15.049Z,0
2023-01-01T04:06:14.950Z,0
2023-01-01T04:07:16.025Z,0
2023-01-01T04:08:16.087Z,0
2023-01-01T04:09:15.471Z,0.109
2023-01-01T04:10:15.452Z,0.219
2023-01-01T04:11:15.247Z,0.219
2023-01-01T04:12:14.934Z,0.340
2023-01-01T04:13:15.020Z,0.340
2023-01-01T04:14:15.006Z,0.340
2023-01-01T04:15:15.457Z,0.340
2023-01-01T04:16:14.938Z,0
2023-01-01T04:17:14.564Z,0.340
2023-01-01T04:18:15.297Z,0.219
2023-01-01T04:19:15.142Z,0.109
2023-01-01T04:20:14.911Z,0.109
2023-01-01T04:21:14.718Z,0.219
2023-01-01T04:22:15.392Z,0.340
2023-01-01T04:23:15.068Z,0.219
2023-01-01T04:24:14.612Z,0.109
2023-01-01T04:25:15.886Z,0
2023-01-01T04:26:15.122Z,0.109
2023-01-01T04:27:15.613Z,0.109
2023-01-01T04:28:15.455Z,0.109
2023-01-01T04:29:15.411Z,0
2023-01-01T04:30:15.682Z,0.340
2023-01-01T04:31:16.181Z,0
2023-01-01T04:32:16.219Z,0
2023-01-01T04:33:16.089Z,0
2023-01-01T04:34:16.717Z,0
2023-01-01T04:35:15.362Z,0.109
2023-01-01T04:36:16.625Z,0.219
2023-01-01T04:37:15.497Z,0
2023-01-01T04:38:15.915Z,0.219
2023-01-01T04:39:15.739Z,0
2023-01-01T04:40:16.033Z,0
2023-01-01T04:41:15.981Z,0
2023-01-01T04:42:15.724Z,0
2023-01-01T04:43:16.180Z,0
2023-01-01T04:44:16.120Z,0
2023-01-01T04:45:15.711Z,0
2023-01-01T04:46:15.668Z,0
2023-01-01T04:47:15.452Z,0
2023-01-01T04:48:16.199Z,0
2023-01-01T04:49:16.577Z,0
2023-01-01T04:50:15.857Z,0
2023-01-01T04:51:15.988Z,0
2023-01-01T04:52:16.039Z,0
2023-01-01T04:53:16.230Z,0
2023-01-01T04:54:17.012Z,0
2023-01-01T04:55:15.736Z,0
2023-01-01T04:56:14.928Z,0
2023-01-01T04:57:15.397Z,0
2023-01-01T04:58:14.493Z,0
2023-01-01T04:59:14.854Z,0
2023-01-01T05:00:16.826Z,0
2023-01-01T05:01:14.921Z,0
2023-01-01T05:02:15.078Z,0
2023-01-01T05:03:15.482Z,0
2023-01-01T05:04:15.177Z,0
2023-01-01T05:05:14.768Z,0
2023-01-01T05:06:14.797Z,0
2023-01-01T05:07:15.463Z,0
2023-01-01T05:08:14.924Z,0
2023-01-01T05:09:14.518Z,0
2023-01-01T05:10:15.011Z,0
2023-01-01T05:11:14.491Z,0
2023-01-01T05:12:14.992Z,0
2023-01-01T05:13:14.834Z,0
2023-01-01T05:14:15.120Z,0
2023-01-01T05:15:15.024Z,0
2023-01-01T05:16:15.508Z,0
2023-01-01T05:17:15.525Z,0
2023-01-01T05:18:14.949Z,0
2023-01-01T05:19:15.036Z,0.109
2023-01-01T05:20:14.986Z,0.109
2023-01-01T05:21:15.243Z,0
2023-01-01T05:22:14.680Z,0.109
2023-01-01T05:23:15.551Z,0
2023-01-01T05:24:15.069Z,0
2023-01-01T05:25:15.665Z,0
2023-01-01T05:26:14.371Z,0
2023-01-01T05:27:15.347Z,0
2023-01-01T05:28:14.607Z,0
2023-01-01T05:29:16.532Z,0.109
2023-01-01T05:30:16.967Z,0
2023-01-01T05:31:14.836Z,0
2023-01-01T05:33:14.761Z,0
2023-01-01T05:34:15.194Z,0
2023-01-01T05:35:15.013Z,0
2023-01-01T05:36:15.026Z,0
2023-01-01T05:37:14.389Z,0.109
2023-01-01T05:38:14.938Z,0
2023-01-01T05:39:14.692Z,0
2023-01-01T05:40:15.678Z,0
2023-01-01T05:41:14.778Z,0.219
2023-01-01T05:42:15.288Z,0
2023-01-01T05:43:14.627Z,0
2023-01-01T05:44:14.950Z,0
2023-01-01T05:45:14.420Z,0
2023-01-01T05:46:15.000Z,0
2023-01-01T05:47:14.849Z,0.109
2023-01-01T05:48:14.608Z,0.109
2023-01-01T05:49:15.400Z,0.109
2023-01-01T05:50:14.817Z,0.340
2023-01-01T05:51:15.210Z,0.340
2023-01-01T05:52:14.867Z,0.109
2023-01-01T05:53:15.296Z,0
2023-01-01T05:55:15.147Z,0.109
2023-01-01T05:56:14.146Z,0.109
2023-01-01T05:57:14.696Z,0.109
2023-01-01T05:58:14.945Z,0
2023-01-01T05:59:14.785Z,0
2023-01-01T06:00:15.886Z,0
2023-01-01T06:01:14.722Z,0
2023-01-01T06:02:15.522Z,0.109
2023-01-01T06:03:15.409Z,0.200
2023-01-01T06:04:14.981Z,0
2023-01-01T06:05:14.592Z,0
2023-01-01T06:06:14.284Z,0
2023-01-01T06:07:15.161Z,0
2023-01-01T06:08:14.764Z,0
2023-01-01T06:09:15.201Z,0
2023-01-01T06:10:14.380Z,0.100
2023-01-01T06:11:14.483Z,0
2023-01-01T06:12:15.524Z,0
2023-01-01T06:13:14.568Z,0
2023-01-01T06:14:14.497Z,0
2023-01-01T06:15:15.417Z,0.109
2023-01-01T06:16:15.628Z,0
2023-01-01T06:17:15.537Z,0
2023-01-01T06:18:14.633Z,0
2023-01-01T06:19:14.430Z,0
2023-01-01T06:20:14.959Z,0
2023-01-01T06:21:15.212Z,0
2023-01-01T06:22:14.435Z,0
2023-01-01T06:23:15.674Z,0
2023-01-01T06:24:14.897Z,0.109
2023-01-01T06:25:15.511Z,0
2023-01-01T06:26:14.777Z,0.109
2023-01-01T06:27:15.612Z,0.219
2023-01-01T06:28:14.731Z,0.109
2023-01-01T06:29:15.585Z,0.219
2023-01-01T06:30:14.961Z,0.109
2023-01-01T06:31:14.634Z,0
2023-01-01T06:32:15.102Z,0
2023-01-01T06:33:14.688Z,0
2023-01-01T06:34:15.017Z,0
2023-01-01T06:35:15.784Z,0
2023-01-01T06:36:15.344Z,0
2023-01-01T06:37:15.284Z,0.109
2023-01-01T06:38:14.498Z,0.109
2023-01-01T06:39:15.325Z,0
2023-01-01T06:40:15.000Z,0.219
2023-01-01T06:41:14.970Z,0.219
2023-01-01T06:42:14.768Z,0.219
2023-01-01T06:43:15.428Z,0
2023-01-01T06:44:14.583Z,0
2023-01-01T06:45:15.293Z,0
2023-01-01T06:46:14.650Z,0
2023-01-01T06:47:15.348Z,13600
2023-01-01T06:48:14.854Z,0
2023-01-01T06:49:15.177Z,13600
2023-01-01T06:50:15.116Z,0
2023-01-01T06:51:15.019Z,0
2023-01-01T06:52:15.017Z,13600
2023-01-01T06:53:15.672Z,13600
2023-01-01T06:54:15.984Z,13600
2023-01-01T06:55:14.816Z,13600
2023-01-01T06:56:14.682Z,0
2023-01-01T06:57:14.985Z,0
2023-01-01T06:58:15.063Z,0
2023-01-01T06:59:15.081Z,0
2023-01-01T07:00:16.414Z,0
2023-01-01T07:01:15.507Z,0
2023-01-01T07:02:15.693Z,0.560
2023-01-01T07:03:15.392Z,0.680
2023-01-01T07:04:15.800Z,0.680
2023-01-01T07:05:15.364Z,0.680
2023-01-01T07:06:15.439Z,0.680
2023-01-01T07:07:16.301Z,0.340
2023-01-01T07:08:15.139Z,0
2023-01-01T07:09:16.638Z,0
2023-01-01T07:10:15.523Z,0
2023-01-01T07:11:15.210Z,0
2023-01-01T07:12:16.078Z,0.449
2023-01-01T07:13:15.494Z,0.620
2023-01-01T07:14:15.426Z,0.109
2023-01-01T07:15:15.495Z,0.449
2023-01-01T07:16:15.513Z,0.990
2023-01-01T07:17:15.648Z,1.289
2023-01-01T07:18:14.939Z,2.509
2023-01-01T07:19:15.401Z,4.599
2023-01-01T07:20:16.111Z,8.5
2023-01-01T07:21:15.585Z,12.10
2023-01-01T07:22:15.016Z,17.60
2023-01-01T07:23:15.507Z,24.60
2023-01-01T07:24:15.814Z,29.39
2023-01-01T07:25:15.480Z,37.90
2023-01-01T07:26:15.403Z,41.29
2023-01-01T07:27:15.939Z,41.29
2023-01-01T07:28:15.310Z,40.50
2023-01-01T07:29:16.028Z,36.29
2023-01-01T07:30:15.665Z,31
2023-01-01T07:31:15.607Z,26.20
2023-01-01T07:32:15.205Z,21.36
2023-01-01T07:33:14.939Z,20.43
2023-01-01T07:34:15.342Z,23.20
2023-01-01T07:35:16.021Z,27.10
2023-01-01T07:36:15.233Z,31.39
2023-01-01T07:37:15.850Z,35.29
2023-01-01T07:38:15.647Z,42
2023-01-01T07:39:15.459Z,55
2023-01-01T07:40:15.621Z,65.80
2023-01-01T07:41:16.045Z,71.19
2023-01-01T07:42:15.913Z,74.90
2023-01-01T07:43:16.039Z,80.5
2023-01-01T07:44:14.816Z,92
2023-01-01T07:45:15.166Z,106
2023-01-01T07:46:15.135Z,119
2023-01-01T07:47:15.604Z,130
2023-01-01T07:48:15.239Z,140.3
2023-01-01T07:49:15.327Z,148.3
2023-01-01T07:50:16.073Z,152.6
2023-01-01T07:51:15.696Z,164
2023-01-01T07:52:15.838Z,182
2023-01-01T07:53:15.780Z,192
2023-01-01T07:54:15.739Z,209
2023-01-01T07:55:15.655Z,224.6
2023-01-01T07:56:15.256Z,237
2023-01-01T07:57:15.796Z,244.0
2023-01-01T07:58:14.856Z,249
2023-01-01T07:59:20.259Z,272
2023-01-01T08:00:16.586Z,300
2023-01-01T08:01:15.165Z,360
2023-01-01T08:02:16.293Z,396.6
2023-01-01T08:03:15.795Z,393
2023-01-01T08:04:15.541Z,420
2023-01-01T08:05:18.716Z,450
2023-01-01T08:06:15.118Z,489
2023-01-01T08:07:15.830Z,520
2023-01-01T08:08:15.537Z,553
2023-01-01T08:09:16.059Z,581
2023-01-01T08:10:15.233Z,602
2023-01-01T08:11:15.696Z,617.0
2023-01-01T08:12:15.992Z,629
2023-01-01T08:13:15.645Z,658
2023-01-01T08:14:15.365Z,690
2023-01-01T08:15:15.566Z,740
2023-01-01T08:16:15.940Z,782
2023-01-01T08:17:15.416Z,799
2023-01-01T08:18:15.795Z,799
2023-01-01T08:19:15.382Z,740
2023-01-01T08:20:15.229Z,660
2023-01-01T08:21:15.586Z,610
2023-01-01T08:22:16.092Z,570
2023-01-01T08:23:15.712Z,520
2023-01-01T08:24:16.172Z,478
2023-01-01T08:25:15.588Z,450
2023-01-01T08:26:15.390Z,380
2023-01-01T08:27:16.029Z,300
2023-01-01T08:28:15.763Z,250
2023-01-01T08:29:15.026Z,242.3
2023-01-01T08:30:15.365Z,235.6
2023-01-01T08:31:16.317Z,225
2023-01-01T08:32:15.820Z,210
2023-01-01T08:33:15.377Z,201.3
2023-01-01T08:34:15.825Z,198.1
2023-01-01T08:35:15.724Z,197.8
2023-01-01T08:36:15.108Z,199.1
2023-01-01T08:37:15.980Z,202.5
2023-01-01T08:38:15.437Z,208.5
2023-01-01T08:39:15.345Z,214.3
2023-01-01T08:40:15.248Z,223
2023-01-01T08:41:15.365Z,231.6
2023-01-01T08:42:15.294Z,228.3
2023-01-01T08:43:15.317Z,226.4
2023-01-01T08:44:15.124Z,227.5
2023-01-01T08:45:15.609Z,232.8
2023-01-01T08:46:15.381Z,240.6
2023-01-01T08:47:15.590Z,250
2023-01-01T08:48:15.986Z,265
2023-01-01T08:49:15.595Z,289
2023-01-01T08:50:15.894Z,320
2023-01-01T08:51:15.580Z,350
2023-01-01T08:52:15.760Z,400
2023-01-01T08:53:15.674Z,439
2023-01-01T08:54:15.462Z,470
2023-01-01T08:55:15.404Z,510
2023-01-01T08:56:15.379Z,545
2023-01-01T08:57:15.974Z,570
2023-01-01T08:58:15.372Z,600
2023-01-01T08:59:15.506Z,800
2023-01-01T09:00:16.659Z,1000
2023-01-01T09:01:16.573Z,1200
2023-01-01T09:02:15.933Z,1000
2023-01-01T09:03:15.961Z,960
2023-01-01T09:04:16.137Z,934
2023-01-01T09:05:16.058Z,933.7
2023-01-01T09:06:17.717Z,950
2023-01-01T09:07:17.501Z,978
2023-01-01T09:08:16.867Z,940
2023-01-01T09:09:19.593Z,890
2023-01-01T09:10:16.737Z,866
2023-01-01T09:11:16.289Z,879
2023-01-01T09:12:17.639Z,840
2023-01-01T09:13:17.337Z,780
2023-01-01T09:14:16.561Z,740
2023-01-01T09:15:16.761Z,706
2023-01-01T09:16:16.819Z,640
2023-01-01T09:17:16.883Z,580
2023-01-01T09:18:16.512Z,555
2023-01-01T09:19:17.442Z,550
2023-01-01T09:20:16.778Z,600
2023-01-01T09:21:17.559Z,660
2023-01-01T09:22:16.909Z,666
2023-01-01T09:23:16.774Z,640
2023-01-01T09:24:17.729Z,621.4
2023-01-01T09:25:17.274Z,600
2023-01-01T09:26:17.444Z,574
2023-01-01T09:27:17.157Z,549
2023-01-01T09:28:21.767Z,549
2023-01-01T09:29:17.202Z,600
2023-01-01T09:30:17.256Z,680
2023-01-01T09:31:16.779Z,730
2023-01-01T09:32:17.162Z,800
2023-01-01T09:33:17.582Z,950
2023-01-01T09:34:16.730Z,980
2023-01-01T09:35:18.036Z,952
2023-01-01T09:36:17.284Z,960
2023-01-01T09:37:16.947Z,977
2023-01-01T09:38:17.200Z,1000.
2023-01-01T09:39:16.806Z,995.0
2023-01-01T09:40:16.702Z,988
2023-01-01T09:41:17.482Z,994
2023-01-01T09:42:18.764Z,1030
2023-01-01T09:43:17.631Z,1020
2023-01-01T09:44:16.699Z,960
2023-01-01T09:45:17.535Z,990
2023-01-01T09:46:17.182Z,1030
2023-01-01T09:47:18.062Z,1100
2023-01-01T09:48:17.588Z,1250
2023-01-01T09:49:17.155Z,1230
2023-01-01T09:50:17.566Z,1100
2023-01-01T09:51:17.837Z,1048
2023-01-01T09:52:16.749Z,1036.
2023-01-01T09:53:17.247Z,1038.
2023-01-01T09:54:17.307Z,1043
2023-01-01T09:55:16.767Z,1070
2023-01-01T09:56:16.563Z,1100
2023-01-01T09:57:20.058Z,1100
2023-01-01T09:58:16.465Z,1290
2023-01-01T09:59:16.559Z,1400
2023-01-01T10:00:18.438Z,1600
2023-01-01T10:01:16.278Z,1900
2023-01-01T10:02:22.450Z,2000
2023-01-01T10:03:16.931Z,2170
2023-01-01T10:04:16.946Z,2186
2023-01-01T10:05:18.093Z,2190
2023-01-01T10:06:16.957Z,2270
2023-01-01T10:07:16.558Z,2320
2023-01-01T10:08:22.943Z,2400
2023-01-01T10:09:17.422Z,2000
2023-01-01T10:10:16.761Z,1000
2023-01-01T10:11:16.470Z,1600
2023-01-01T10:12:17.243Z,1800
2023-01-01T10:13:17.110Z,1870
2023-01-01T10:14:16.357Z,1810
2023-01-01T10:15:17.426Z,1794
2023-01-01T10:16:23.703Z,1779.
2023-01-01T10:17:16.843Z,1797
2023-01-01T10:18:25.874Z,1840
2023-01-01T10:19:17.566Z,1902
2023-01-01T10:20:18.297Z,1860
2023-01-01T10:21:17.764Z,1808
2023-01-01T10:22:16.532Z,1829
2023-01-01T10:23:17.177Z,1870
2023-01-01T10:24:16.270Z,1800
2023-01-01T10:25:16.925Z,1600
2023-01-01T10:26:16.973Z,1560
2023-01-01T10:27:16.885Z,1600
2023-01-01T10:28:17.405Z,1600
2023-01-01T10:29:16.847Z,1520
2023-01-01T10:30:16.652Z,1510
2023-01-01T10:31:17.824Z,1600
2023-01-01T10:32:16.832Z,1840
2023-01-01T10:33:16.649Z,1840
2023-01-01T10:34:16.380Z,1700
2023-01-01T10:35:17.141Z,1000
2023-01-01T10:36:16.620Z,1000
2023-01-01T10:37:17.077Z,1032.
2023-01-01T10:38:16.757Z,1027.
2023-01-01T10:39:17.494Z,1030
2023-01-01T10:40:17.816Z,1090
2023-01-01T10:41:19.950Z,1137
2023-01-01T10:42:17.765Z,1162
2023-01-01T10:43:17.315Z,1185
2023-01-01T10:44:16.534Z,1181
2023-01-01T10:45:17.200Z,1140
2023-01-01T10:46:17.088Z,1135
2023-01-01T10:47:17.544Z,1157
2023-01-01T10:48:17.012Z,1200
2023-01-01T10:49:17.116Z,1244
2023-01-01T10:50:17.169Z,1100
2023-01-01T10:51:16.625Z,1020
2023-01-01T10:52:16.912Z,981
2023-01-01T10:53:16.937Z,982
2023-01-01T10:54:17.504Z,1004
2023-01-01T10:55:17.231Z,991
2023-01-01T10:56:17.026Z,1010
2023-01-01T10:57:16.169Z,1090
2023-01-01T10:58:17.032Z,1170
2023-01-01T10:59:16.479Z,1230
2023-01-01T11:00:18.454Z,1279
2023-01-01T11:01:17.880Z,1293
2023-01-01T11:02:16.922Z,1270
2023-01-01T11:03:18.300Z,1240
2023-01-01T11:04:16.974Z,1300
2023-01-01T11:05:21.373Z,1400
2023-01-01T11:06:16.777Z,1000
2023-01-01T11:07:17.069Z,2000
2023-01-01T11:08:17.112Z,2000
2023-01-01T11:09:18.143Z,2000
2023-01-01T11:10:17.172Z,3000
2023-01-01T11:11:17.617Z,2700
2023-01-01T11:12:46.115Z,2710
2023-01-01T11:13:24.676Z,2000
2023-01-01T11:14:16.991Z,1000
2023-01-01T11:15:17.037Z,1300
2023-01-01T11:16:17.484Z,1100
2023-01-01T11:17:17.442Z,1050
2023-01-01T11:18:17.480Z,1000
2023-01-01T11:19:17.363Z,950
2023-01-01T11:20:17.143Z,890
2023-01-01T11:21:17.428Z,880
2023-01-01T11:22:16.868Z,940
2023-01-01T11:23:17.295Z,930
2023-01-01T11:24:17.548Z,840
2023-01-01T11:25:18.086Z,760
2023-01-01T11:26:17.223Z,690
2023-01-01T11:27:17.414Z,620
2023-01-01T11:28:16.850Z,570
2023-01-01T11:29:16.723Z,551
2023-01-01T11:30:17.758Z,560
2023-01-01T11:31:17.662Z,600
2023-01-01T11:32:16.945Z,630
2023-01-01T11:33:17.244Z,637
2023-01-01T11:34:16.615Z,642
2023-01-01T11:35:17.460Z,640
2023-01-01T11:36:16.485Z,646
2023-01-01T11:37:17.160Z,674
2023-01-01T11:38:18.192Z,700
2023-01-01T11:39:17.099Z,730
2023-01-01T11:40:17.893Z,763
2023-01-01T11:41:17.669Z,783
2023-01-01T11:42:18.185Z,804
2023-01-01T11:43:17.773Z,798
2023-01-01T11:44:17.131Z,775
2023-01-01T11:45:17.873Z,793
2023-01-01T11:46:17.619Z,770
2023-01-01T11:47:17.340Z,700
2023-01-01T11:48:16.819Z,650
2023-01-01T11:49:17.158Z,624
2023-01-01T11:50:17.347Z,618.2
2023-01-01T11:51:17.150Z,619.9
2023-01-01T11:52:16.736Z,624
2023-01-01T11:53:16.336Z,650
2023-01-01T11:54:16.975Z,681
2023-01-01T11:55:17.099Z,691
2023-01-01T11:56:16.872Z,740
2023-01-01T11:57:17.067Z,820
2023-01-01T11:58:19.794Z,880
2023-01-01T11:59:16.816Z,930
2023-01-01T12:00:18.978Z,900
2023-01-01T12:01:17.798Z,1080
2023-01-01T12:02:17.075Z,1118
2023-01-01T12:03:17.911Z,1108
2023-01-01T12:04:17.824Z,1120
2023-01-01T12:05:16.747Z,1160
2023-01-01T12:06:18.163Z,1182
2023-01-01T12:07:18.341Z,1120
2023-01-01T12:08:17.316Z,1040
2023-01-01T12:09:18.886Z,1001
2023-01-01T12:10:17.943Z,996.2
2023-01-01T12:11:18.117Z,1004.
2023-01-01T12:12:18.061Z,1013
2023-01-01T12:13:17.085Z,1035
2023-01-01T12:14:16.526Z,1060
2023-01-01T12:15:17.569Z,1089.
2023-01-01T12:16:17.724Z,1090.
2023-01-01T12:17:17.516Z,1091
2023-01-01T12:18:16.974Z,1120
2023-01-01T12:19:17.251Z,1144
2023-01-01T12:20:17.669Z,1165
2023-01-01T12:21:17.570Z,1175.
2023-01-01T12:22:17.596Z,1180
2023-01-01T12:23:21.998Z,1250
2023-01-01T12:24:16.931Z,1350
2023-01-01T12:25:17.100Z,1410
2023-01-01T12:26:17.034Z,1444
2023-01-01T12:27:17.757Z,1470
2023-01-01T12:28:17.456Z,1500
2023-01-01T12:29:16.486Z,1700
2023-01-01T12:30:17.772Z,1900
2023-01-01T12:31:17.211Z,2100
2023-01-01T12:32:16.987Z,2400
2023-01-01T12:33:16.535Z,2000
2023-01-01T12:34:16.946Z,2900
2023-01-01T12:35:16.989Z,3100
2023-01-01T12:36:17.103Z,3200
2023-01-01T12:37:17.535Z,3400
2023-01-01T12:38:16.994Z,3700
2023-01-01T12:39:16.878Z,3900
2023-01-01T12:40:21.210Z,4110
2023-01-01T12:41:16.962Z,4164.
2023-01-01T12:42:16.422Z,4200
2023-01-01T12:43:16.690Z,4280
2023-01-01T12:44:16.788Z,4200
2023-01-01T12:45:31.235Z,4000
2023-01-01T12:46:17.361Z,4010
2023-01-01T12:47:17.258Z,4090
2023-01-01T12:48:17.324Z,4100
2023-01-01T12:49:16.581Z,4400
2023-01-01T12:50:17.245Z,4470
2023-01-01T12:51:16.583Z,4400
2023-01-01T12:52:16.730Z,4330
2023-01-01T12:53:16.436Z,4330
2023-01-01T12:54:17.093Z,4400
2023-01-01T12:55:17.196Z,4600
2023-01-01T12:56:22.419Z,4800
2023-01-01T12:57:17.151Z,4900
2023-01-01T12:58:16.721Z,5100
2023-01-01T12:59:16.790Z,5150
2023-01-01T13:00:19.453Z,5000
2023-01-01T13:01:17.321Z,4930
2023-01-01T13:02:17.233Z,4700
2023-01-01T13:03:17.748Z,4000
2023-01-01T13:04:17.032Z,4100
2023-01-01T13:05:17.366Z,4000
2023-01-01T13:06:17.770Z,3700
2023-01-01T13:07:17.084Z,3500
2023-01-01T13:08:16.901Z,3000
2023-01-01T13:09:17.470Z,2000
2023-01-01T13:10:17.521Z,2500
2023-01-01T13:11:17.817Z,2350
2023-01-01T13:12:18.035Z,2340
2023-01-01T13:14:16.150Z,2200
2023-01-01T13:15:16.688Z,2228
2023-01-01T13:16:15.942Z,2270
2023-01-01T13:17:16.242Z,2330
2023-01-01T13:18:16.063Z,2400
2023-01-01T13:19:16.068Z,2480
2023-01-01T13:20:16.080Z,2300
2023-01-01T13:21:16.121Z,2200
2023-01-01T13:22:16.435Z,2000
2023-01-01T13:23:16.576Z,1900
2023-01-01T13:24:15.611Z,1700
2023-01-01T13:25:16.240Z,1600
2023-01-01T13:26:15.060Z,1400
2023-01-01T13:27:15.618Z,1390
2023-01-01T13:28:15.943Z,1360
2023-01-01T13:29:15.812Z,1440
2023-01-01T13:30:15.836Z,1500
2023-01-01T13:31:15.871Z,1700
2023-01-01T13:32:15.546Z,1800
2023-01-01T13:33:21.565Z,1910
2023-01-01T13:34:15.671Z,1886
2023-01-01T13:35:15.520Z,1850
2023-01-01T13:36:15.977Z,1847
2023-01-01T13:37:15.435Z,1869
2023-01-01T13:38:16.470Z,1871
2023-01-01T13:39:16.267Z,1854